sensor_id;sensor_type;location;lat;lon;timestamp;temperature;humidity
4312;DHT22;2169;49.086;9.284;2023-03-01T00:00:18;1.10;53.60
4312;DHT22;2169;49.086;9.284;2023-03-01T00:02:45;1.10;53.70
4312;DHT22;2169;49.086;9.284;2023-03-01T00:05:12;1.10;53.70
4312;DHT22;2169;49.086;9.284;2023-03-01T00:07:38;1.10;53.70
4312;DHT22;2169;49.086;9.284;2023-03-01T00:10:08;1.00;53.70
4312;DHT22;2169;49.086;9.284;2023-03-01T00:12:35;1.00;53.80
4312;DHT22;2169;49.086;9.284;2023-03-01T00:15:02;1.00;53.90
4312;DHT22;2169;49.086;9.284;2023-03-01T00:17:30;1.00;53.90
4312;DHT22;2169;49.086;9.284;2023-03-01T00:19:57;1.00;54.00
4312;DHT22;2169;49.086;9.284;2023-03-01T00:22:24;1.00;54.00
4312;DHT22;2169;49.086;9.284;2023-03-01T00:24:50;1.00;54.00
4312;DHT22;2169;49.086;9.284;2023-03-01T00:27:18;1.00;54.10
4312;DHT22;2169;49.086;9.284;2023-03-01T00:29:45;0.90;53.90
4312;DHT22;2169;49.086;9.284;2023-03-01T00:32:12;0.90;54.00
4312;DHT22;2169;49.086;9.284;2023-03-01T00:34:39;0.90;54.00
4312;DHT22;2169;49.086;9.284;2023-03-01T00:37:05;0.90;54.00
4312;DHT22;2169;49.086;9.284;2023-03-01T00:39:32;0.90;54.10
4312;DHT22;2169;49.086;9.284;2023-03-01T00:41:59;0.90;54.10
4312;DHT22;2169;49.086;9.284;2023-03-01T00:44:27;0.90;54.20
4312;DHT22;2169;49.086;9.284;2023-03-01T00:46:54;0.90;54.20
4312;DHT22;2169;49.086;9.284;2023-03-01T00:49:21;0.90;54.30
4312;DHT22;2169;49.086;9.284;2023-03-01T00:51:49;0.80;54.20
4312;DHT22;2169;49.086;9.284;2023-03-01T00:54:16;0.80;54.30
4312;DHT22;2169;49.086;9.284;2023-03-01T00:56:43;0.80;54.30
4312;DHT22;2169;49.086;9.284;2023-03-01T00:59:09;0.80;54.30
4312;DHT22;2169;49.086;9.284;2023-03-01T01:01:38;0.80;54.30
4312;DHT22;2169;49.086;9.284;2023-03-01T01:04:07;0.80;54.40
4312;DHT22;2169;49.086;9.284;2023-03-01T01:06:36;0.70;54.40
4312;DHT22;2169;49.086;9.284;2023-03-01T01:09:04;0.70;54.40
4312;DHT22;2169;49.086;9.284;2023-03-01T01:11:32;0.70;54.50
4312;DHT22;2169;49.086;9.284;2023-03-01T01:14:00;0.70;54.50
4312;DHT22;2169;49.086;9.284;2023-03-01T01:16:28;0.70;54.50
4312;DHT22;2169;49.086;9.284;2023-03-01T01:18:57;0.70;54.60
4312;DHT22;2169;49.086;9.284;2023-03-01T01:21:24;0.60;54.60
4312;DHT22;2169;49.086;9.284;2023-03-01T01:23:52;0.60;54.60
4312;DHT22;2169;49.086;9.284;2023-03-01T01:26:21;0.60;54.60
4312;DHT22;2169;49.086;9.284;2023-03-01T01:28:49;0.60;54.70
4312;DHT22;2169;49.086;9.284;2023-03-01T01:31:16;0.60;54.80
4312;DHT22;2169;49.086;9.284;2023-03-01T01:33:43;0.60;54.80
4312;DHT22;2169;49.086;9.284;2023-03-01T01:36:11;0.50;54.90
4312;DHT22;2169;49.086;9.284;2023-03-01T01:38:39;0.50;54.90
4312;DHT22;2169;49.086;9.284;2023-03-01T01:41:07;0.50;54.90
4312;DHT22;2169;49.086;9.284;2023-03-01T01:43:38;0.50;55.00
4312;DHT22;2169;49.086;9.284;2023-03-01T01:46:14;0.50;55.00
4312;DHT22;2169;49.086;9.284;2023-03-01T01:48:45;0.50;55.10
4312;DHT22;2169;49.086;9.284;2023-03-01T01:51:18;0.50;55.10
4312;DHT22;2169;49.086;9.284;2023-03-01T01:53:48;0.50;55.10
4312;DHT22;2169;49.086;9.284;2023-03-01T01:56:16;0.50;55.10
4312;DHT22;2169;49.086;9.284;2023-03-01T01:58:44;0.50;55.10
4312;DHT22;2169;49.086;9.284;2023-03-01T02:01:13;0.40;55.10
4312;DHT22;2169;49.086;9.284;2023-03-01T02:03:42;0.40;55.10
4312;DHT22;2169;49.086;9.284;2023-03-01T02:06:15;0.40;55.20
4312;DHT22;2169;49.086;9.284;2023-03-01T02:08:46;0.40;55.20
4312;DHT22;2169;49.086;9.284;2023-03-01T02:11:14;0.40;55.30
4312;DHT22;2169;49.086;9.284;2023-03-01T02:13:41;0.40;55.30
4312;DHT22;2169;49.086;9.284;2023-03-01T02:16:10;0.40;55.30
4312;DHT22;2169;49.086;9.284;2023-03-01T02:18:38;0.40;55.30
4312;DHT22;2169;49.086;9.284;2023-03-01T02:21:25;0.40;55.30
4312;DHT22;2169;49.086;9.284;2023-03-01T02:23:53;0.30;55.30
4312;DHT22;2169;49.086;9.284;2023-03-01T02:26:27;0.30;55.30
4312;DHT22;2169;49.086;9.284;2023-03-01T02:28:58;0.30;55.40
4312;DHT22;2169;49.086;9.284;2023-03-01T02:31:25;0.30;55.40
4312;DHT22;2169;49.086;9.284;2023-03-01T02:34:13;0.30;55.40
4312;DHT22;2169;49.086;9.284;2023-03-01T02:36:40;0.30;55.40
4312;DHT22;2169;49.086;9.284;2023-03-01T02:39:14;0.30;55.40
4312;DHT22;2169;49.086;9.284;2023-03-01T02:41:46;0.30;55.40
4312;DHT22;2169;49.086;9.284;2023-03-01T02:44:15;0.30;55.50
4312;DHT22;2169;49.086;9.284;2023-03-01T02:46:44;0.30;55.50
4312;DHT22;2169;49.086;9.284;2023-03-01T02:49:24;0.20;55.50
4312;DHT22;2169;49.086;9.284;2023-03-01T02:52:07;0.20;55.50
4312;DHT22;2169;49.086;9.284;2023-03-01T02:54:41;0.20;55.50
4312;DHT22;2169;49.086;9.284;2023-03-01T02:57:10;0.20;55.50
4312;DHT22;2169;49.086;9.284;2023-03-01T02:59:39;0.20;55.60
4312;DHT22;2169;49.086;9.284;2023-03-01T03:02:06;0.20;55.60
4312;DHT22;2169;49.086;9.284;2023-03-01T03:04:34;0.20;55.60
4312;DHT22;2169;49.086;9.284;2023-03-01T03:07:00;0.20;55.60
4312;DHT22;2169;49.086;9.284;2023-03-01T03:09:27;0.20;55.60
4312;DHT22;2169;49.086;9.284;2023-03-01T03:11:54;0.10;55.60
4312;DHT22;2169;49.086;9.284;2023-03-01T03:14:21;0.20;55.60
4312;DHT22;2169;49.086;9.284;2023-03-01T03:16:50;0.10;55.60
4312;DHT22;2169;49.086;9.284;2023-03-01T03:19:18;0.10;55.60
4312;DHT22;2169;49.086;9.284;2023-03-01T03:21:45;0.10;55.70
4312;DHT22;2169;49.086;9.284;2023-03-01T03:24:12;0.10;55.70
4312;DHT22;2169;49.086;9.284;2023-03-01T03:26:39;0.10;55.70
4312;DHT22;2169;49.086;9.284;2023-03-01T03:29:06;0.10;55.70
4312;DHT22;2169;49.086;9.284;2023-03-01T03:31:33;0.10;55.70
4312;DHT22;2169;49.086;9.284;2023-03-01T03:34:02;0.10;55.70
4312;DHT22;2169;49.086;9.284;2023-03-01T03:36:28;0.10;55.80
4312;DHT22;2169;49.086;9.284;2023-03-01T03:38:55;0.10;55.80
4312;DHT22;2169;49.086;9.284;2023-03-01T03:41:22;0.10;55.80
4312;DHT22;2169;49.086;9.284;2023-03-01T03:43:48;0.10;55.80
4312;DHT22;2169;49.086;9.284;2023-03-01T03:46:15;0.10;55.80
4312;DHT22;2169;49.086;9.284;2023-03-01T03:48:43;0.00;55.80
4312;DHT22;2169;49.086;9.284;2023-03-01T03:51:14;0.00;55.80
4312;DHT22;2169;49.086;9.284;2023-03-01T03:53:41;0.00;55.80
4312;DHT22;2169;49.086;9.284;2023-03-01T03:56:08;0.00;55.90
4312;DHT22;2169;49.086;9.284;2023-03-01T03:58:35;0.00;55.90
4312;DHT22;2169;49.086;9.284;2023-03-01T04:01:02;0.00;56.00
4312;DHT22;2169;49.086;9.284;2023-03-01T04:03:30;0.00;56.00
4312;DHT22;2169;49.086;9.284;2023-03-01T04:05:58;0.00;56.00
4312;DHT22;2169;49.086;9.284;2023-03-01T04:08:27;0.00;56.10
4312;DHT22;2169;49.086;9.284;2023-03-01T04:10:58;-0.10;56.10
4312;DHT22;2169;49.086;9.284;2023-03-01T04:13:25;-0.10;56.10
4312;DHT22;2169;49.086;9.284;2023-03-01T04:15:53;-0.10;56.10
4312;DHT22;2169;49.086;9.284;2023-03-01T04:18:22;-0.10;56.10
4312;DHT22;2169;49.086;9.284;2023-03-01T04:20:50;-0.10;56.10
4312;DHT22;2169;49.086;9.284;2023-03-01T04:23:20;-0.10;56.10
4312;DHT22;2169;49.086;9.284;2023-03-01T04:25:50;-0.10;56.20
4312;DHT22;2169;49.086;9.284;2023-03-01T04:28:21;-0.10;56.20
4312;DHT22;2169;49.086;9.284;2023-03-01T04:30:50;-0.10;56.20
4312;DHT22;2169;49.086;9.284;2023-03-01T04:33:17;-0.10;56.20
4312;DHT22;2169;49.086;9.284;2023-03-01T04:35:45;-0.10;56.30
4312;DHT22;2169;49.086;9.284;2023-03-01T04:38:15;-0.20;56.20
4312;DHT22;2169;49.086;9.284;2023-03-01T04:40:42;-0.20;56.30
4312;DHT22;2169;49.086;9.284;2023-03-01T04:43:10;-0.20;56.30
4312;DHT22;2169;49.086;9.284;2023-03-01T04:45:37;-0.20;56.40
4312;DHT22;2169;49.086;9.284;2023-03-01T04:48:04;-0.20;56.40
4312;DHT22;2169;49.086;9.284;2023-03-01T04:50:31;-0.20;56.40
4312;DHT22;2169;49.086;9.284;2023-03-01T04:52:58;-0.20;56.40
4312;DHT22;2169;49.086;9.284;2023-03-01T04:55:26;-0.30;56.40
4312;DHT22;2169;49.086;9.284;2023-03-01T04:57:52;-0.30;56.50
4312;DHT22;2169;49.086;9.284;2023-03-01T05:00:22;-0.30;56.50
4312;DHT22;2169;49.086;9.284;2023-03-01T05:02:50;-0.30;56.50
4312;DHT22;2169;49.086;9.284;2023-03-01T05:05:21;-0.30;56.60
4312;DHT22;2169;49.086;9.284;2023-03-01T05:07:51;-0.30;56.60
4312;DHT22;2169;49.086;9.284;2023-03-01T05:10:18;-0.30;56.60
4312;DHT22;2169;49.086;9.284;2023-03-01T05:12:45;-0.40;56.60
4312;DHT22;2169;49.086;9.284;2023-03-01T05:15:12;-0.40;56.60
4312;DHT22;2169;49.086;9.284;2023-03-01T05:17:41;-0.40;56.70
4312;DHT22;2169;49.086;9.284;2023-03-01T05:20:11;-0.40;56.70
4312;DHT22;2169;49.086;9.284;2023-03-01T05:22:37;-0.40;56.80
4312;DHT22;2169;49.086;9.284;2023-03-01T05:25:05;-0.40;56.80
4312;DHT22;2169;49.086;9.284;2023-03-01T05:27:33;-0.40;56.80
4312;DHT22;2169;49.086;9.284;2023-03-01T05:30:00;-0.40;56.90
4312;DHT22;2169;49.086;9.284;2023-03-01T05:32:41;-0.50;56.80
4312;DHT22;2169;49.086;9.284;2023-03-01T05:35:10;-0.50;56.90
4312;DHT22;2169;49.086;9.284;2023-03-01T05:37:39;-0.50;56.90
4312;DHT22;2169;49.086;9.284;2023-03-01T05:40:07;-0.50;56.90
4312;DHT22;2169;49.086;9.284;2023-03-01T05:42:42;-0.50;57.00
4312;DHT22;2169;49.086;9.284;2023-03-01T05:45:09;-0.50;57.00
4312;DHT22;2169;49.086;9.284;2023-03-01T05:47:37;-0.50;57.00
4312;DHT22;2169;49.086;9.284;2023-03-01T05:50:07;-0.50;57.00
4312;DHT22;2169;49.086;9.284;2023-03-01T05:52:34;-0.60;56.90
4312;DHT22;2169;49.086;9.284;2023-03-01T05:55:01;-0.60;56.90
4312;DHT22;2169;49.086;9.284;2023-03-01T05:57:28;-0.60;56.90
4312;DHT22;2169;49.086;9.284;2023-03-01T05:59:55;-0.60;57.00
4312;DHT22;2169;49.086;9.284;2023-03-01T06:02:22;-0.60;57.00
4312;DHT22;2169;49.086;9.284;2023-03-01T06:04:49;-0.60;57.70
4312;DHT22;2169;49.086;9.284;2023-03-01T06:07:17;-0.60;57.10
4312;DHT22;2169;49.086;9.284;2023-03-01T06:09:44;-0.70;57.10
4312;DHT22;2169;49.086;9.284;2023-03-01T06:12:10;-0.70;57.10
4312;DHT22;2169;49.086;9.284;2023-03-01T06:14:37;-0.70;57.20
4312;DHT22;2169;49.086;9.284;2023-03-01T06:17:04;-0.70;57.20
4312;DHT22;2169;49.086;9.284;2023-03-01T06:19:31;-0.70;57.30
4312;DHT22;2169;49.086;9.284;2023-03-01T06:21:57;-0.70;57.30
4312;DHT22;2169;49.086;9.284;2023-03-01T06:24:26;-0.70;57.30
4312;DHT22;2169;49.086;9.284;2023-03-01T06:26:54;-0.70;57.40
4312;DHT22;2169;49.086;9.284;2023-03-01T06:29:21;-0.70;57.40
4312;DHT22;2169;49.086;9.284;2023-03-01T06:31:48;-0.70;57.50
4312;DHT22;2169;49.086;9.284;2023-03-01T06:34:15;-0.70;57.50
4312;DHT22;2169;49.086;9.284;2023-03-01T06:36:42;-0.70;57.50
4312;DHT22;2169;49.086;9.284;2023-03-01T06:39:09;-0.70;57.50
4312;DHT22;2169;49.086;9.284;2023-03-01T06:41:37;-0.70;57.50
4312;DHT22;2169;49.086;9.284;2023-03-01T06:44:04;-0.70;57.50
4312;DHT22;2169;49.086;9.284;2023-03-01T06:46:31;-0.70;57.50
4312;DHT22;2169;49.086;9.284;2023-03-01T06:48:57;-0.70;57.50
4312;DHT22;2169;49.086;9.284;2023-03-01T06:51:25;-0.70;57.60
4312;DHT22;2169;49.086;9.284;2023-03-01T06:53:52;-0.70;57.60
4312;DHT22;2169;49.086;9.284;2023-03-01T06:56:18;-0.70;57.60
4312;DHT22;2169;49.086;9.284;2023-03-01T06:58:46;-0.70;57.70
4312;DHT22;2169;49.086;9.284;2023-03-01T07:01:13;-0.70;57.70
4312;DHT22;2169;49.086;9.284;2023-03-01T07:03:40;-0.70;57.80
4312;DHT22;2169;49.086;9.284;2023-03-01T07:06:09;-0.70;57.70
4312;DHT22;2169;49.086;9.284;2023-03-01T07:08:36;-0.70;57.70
4312;DHT22;2169;49.086;9.284;2023-03-01T07:11:03;-0.60;57.90
4312;DHT22;2169;49.086;9.284;2023-03-01T07:13:31;-0.60;57.80
4312;DHT22;2169;49.086;9.284;2023-03-01T07:15:59;-0.60;57.90
4312;DHT22;2169;49.086;9.284;2023-03-01T07:18:26;-0.60;57.80
4312;DHT22;2169;49.086;9.284;2023-03-01T07:20:53;-0.60;57.80
4312;DHT22;2169;49.086;9.284;2023-03-01T07:23:20;-0.60;57.90
4312;DHT22;2169;49.086;9.284;2023-03-01T07:25:51;-0.60;57.90
4312;DHT22;2169;49.086;9.284;2023-03-01T07:28:18;-0.50;58.00
4312;DHT22;2169;49.086;9.284;2023-03-01T07:30:45;-0.50;58.00
4312;DHT22;2169;49.086;9.284;2023-03-01T07:33:13;-0.50;58.00
4312;DHT22;2169;49.086;9.284;2023-03-01T07:35:39;-0.50;57.90
4312;DHT22;2169;49.086;9.284;2023-03-01T07:38:06;-0.50;57.90
4312;DHT22;2169;49.086;9.284;2023-03-01T07:40:33;-0.40;58.00
4312;DHT22;2169;49.086;9.284;2023-03-01T07:43:00;-0.40;58.00
4312;DHT22;2169;49.086;9.284;2023-03-01T07:45:28;-0.40;58.00
4312;DHT22;2169;49.086;9.284;2023-03-01T07:47:55;-0.40;58.00
4312;DHT22;2169;49.086;9.284;2023-03-01T07:50:23;-0.30;58.10
4312;DHT22;2169;49.086;9.284;2023-03-01T07:52:50;-0.30;58.00
4312;DHT22;2169;49.086;9.284;2023-03-01T07:55:17;-0.30;58.00
4312;DHT22;2169;49.086;9.284;2023-03-01T07:57:44;-0.20;58.10
4312;DHT22;2169;49.086;9.284;2023-03-01T08:00:12;-0.20;58.10
4312;DHT22;2169;49.086;9.284;2023-03-01T08:02:39;-0.10;58.20
4312;DHT22;2169;49.086;9.284;2023-03-01T08:05:07;-0.10;58.10
4312;DHT22;2169;49.086;9.284;2023-03-01T08:07:35;0.00;58.10
4312;DHT22;2169;49.086;9.284;2023-03-01T08:10:03;0.00;58.10
4312;DHT22;2169;49.086;9.284;2023-03-01T08:12:30;0.00;58.30
4312;DHT22;2169;49.086;9.284;2023-03-01T08:14:56;0.10;58.10
4312;DHT22;2169;49.086;9.284;2023-03-01T08:17:23;0.10;58.00
4312;DHT22;2169;49.086;9.284;2023-03-01T08:19:50;0.20;58.70
4312;DHT22;2169;49.086;9.284;2023-03-01T08:22:17;0.20;58.10
4312;DHT22;2169;49.086;9.284;2023-03-01T08:24:46;0.30;58.10
4312;DHT22;2169;49.086;9.284;2023-03-01T08:27:14;0.30;58.10
4312;DHT22;2169;49.086;9.284;2023-03-01T08:29:41;0.40;58.20
4312;DHT22;2169;49.086;9.284;2023-03-01T08:32:08;0.50;58.20
4312;DHT22;2169;49.086;9.284;2023-03-01T08:34:34;0.50;58.30
4312;DHT22;2169;49.086;9.284;2023-03-01T08:37:02;0.60;58.30
4312;DHT22;2169;49.086;9.284;2023-03-01T08:39:29;0.70;58.40
4312;DHT22;2169;49.086;9.284;2023-03-01T08:41:57;0.80;58.50
4312;DHT22;2169;49.086;9.284;2023-03-01T08:44:24;0.80;59.10
4312;DHT22;2169;49.086;9.284;2023-03-01T08:46:51;1.00;58.60
4312;DHT22;2169;49.086;9.284;2023-03-01T08:49:19;1.00;58.60
4312;DHT22;2169;49.086;9.284;2023-03-01T08:51:47;1.10;58.70
4312;DHT22;2169;49.086;9.284;2023-03-01T08:54:15;1.20;58.70
4312;DHT22;2169;49.086;9.284;2023-03-01T08:56:44;1.40;58.80
4312;DHT22;2169;49.086;9.284;2023-03-01T08:59:13;1.50;58.90
4312;DHT22;2169;49.086;9.284;2023-03-01T09:01:41;1.60;58.90
4312;DHT22;2169;49.086;9.284;2023-03-01T09:04:09;1.70;58.80
4312;DHT22;2169;49.086;9.284;2023-03-01T09:06:35;1.80;58.70
4312;DHT22;2169;49.086;9.284;2023-03-01T09:09:04;1.90;58.70
4312;DHT22;2169;49.086;9.284;2023-03-01T09:11:31;2.00;58.60
4312;DHT22;2169;49.086;9.284;2023-03-01T09:13:58;2.10;58.60
4312;DHT22;2169;49.086;9.284;2023-03-01T09:16:27;2.20;58.60
4312;DHT22;2169;49.086;9.284;2023-03-01T09:18:55;2.30;58.50
4312;DHT22;2169;49.086;9.284;2023-03-01T09:21:22;2.40;58.10
4312;DHT22;2169;49.086;9.284;2023-03-01T09:23:49;2.40;57.90
4312;DHT22;2169;49.086;9.284;2023-03-01T09:26:18;2.50;58.00
4312;DHT22;2169;49.086;9.284;2023-03-01T09:28:47;2.60;58.00
4312;DHT22;2169;49.086;9.284;2023-03-01T09:31:15;2.70;57.90
4312;DHT22;2169;49.086;9.284;2023-03-01T09:33:45;2.70;57.70
4312;DHT22;2169;49.086;9.284;2023-03-01T09:36:14;2.80;57.70
4312;DHT22;2169;49.086;9.284;2023-03-01T09:38:42;2.90;57.70
4312;DHT22;2169;49.086;9.284;2023-03-01T09:41:22;3.10;57.90
4312;DHT22;2169;49.086;9.284;2023-03-01T09:43:57;3.20;57.80
4312;DHT22;2169;49.086;9.284;2023-03-01T09:46:26;3.30;57.50
4312;DHT22;2169;49.086;9.284;2023-03-01T09:48:57;3.40;57.40
4312;DHT22;2169;49.086;9.284;2023-03-01T09:51:29;3.50;57.60
4312;DHT22;2169;49.086;9.284;2023-03-01T09:53:57;3.60;57.50
4312;DHT22;2169;49.086;9.284;2023-03-01T09:56:32;3.70;57.40
4312;DHT22;2169;49.086;9.284;2023-03-01T09:59:11;3.90;57.50
4312;DHT22;2169;49.086;9.284;2023-03-01T10:01:47;4.00;57.30
4312;DHT22;2169;49.086;9.284;2023-03-01T10:04:38;4.10;57.30
4312;DHT22;2169;49.086;9.284;2023-03-01T10:07:20;4.30;57.30
4312;DHT22;2169;49.086;9.284;2023-03-01T10:09:48;4.40;57.10
4312;DHT22;2169;49.086;9.284;2023-03-01T10:12:17;4.50;57.10
4312;DHT22;2169;49.086;9.284;2023-03-01T10:14:51;4.50;56.70
4312;DHT22;2169;49.086;9.284;2023-03-01T10:17:26;4.60;56.40
4312;DHT22;2169;49.086;9.284;2023-03-01T10:19:55;4.70;56.30
4312;DHT22;2169;49.086;9.284;2023-03-01T10:22:32;4.90;56.40
4312;DHT22;2169;49.086;9.284;2023-03-01T10:25:03;5.00;56.30
4312;DHT22;2169;49.086;9.284;2023-03-01T10:27:37;5.10;55.70
4312;DHT22;2169;49.086;9.284;2023-03-01T10:30:10;5.10;55.40
4312;DHT22;2169;49.086;9.284;2023-03-01T10:32:39;5.10;54.90
4312;DHT22;2169;49.086;9.284;2023-03-01T10:35:18;5.10;54.70
4312;DHT22;2169;49.086;9.284;2023-03-01T10:37:58;5.20;54.70
4312;DHT22;2169;49.086;9.284;2023-03-01T10:40:28;5.30;54.70
4312;DHT22;2169;49.086;9.284;2023-03-01T10:42:58;5.30;54.50
4312;DHT22;2169;49.086;9.284;2023-03-01T10:45:33;5.40;54.40
4312;DHT22;2169;49.086;9.284;2023-03-01T10:48:05;5.50;54.40
4312;DHT22;2169;49.086;9.284;2023-03-01T10:50:33;5.60;54.30
4312;DHT22;2169;49.086;9.284;2023-03-01T10:53:03;5.70;54.40
4312;DHT22;2169;49.086;9.284;2023-03-01T10:55:34;5.80;54.30
4312;DHT22;2169;49.086;9.284;2023-03-01T10:58:17;5.90;54.00
4312;DHT22;2169;49.086;9.284;2023-03-01T11:00:48;5.90;53.30
4312;DHT22;2169;49.086;9.284;2023-03-01T11:03:18;5.90;53.20
4312;DHT22;2169;49.086;9.284;2023-03-01T11:06:19;6.00;53.20
4312;DHT22;2169;49.086;9.284;2023-03-01T11:08:47;6.10;53.30
4312;DHT22;2169;49.086;9.284;2023-03-01T11:11:25;6.10;53.20
4312;DHT22;2169;49.086;9.284;2023-03-01T11:13:57;6.20;53.10
4312;DHT22;2169;49.086;9.284;2023-03-01T11:16:31;6.30;52.90
4312;DHT22;2169;49.086;9.284;2023-03-01T11:19:04;6.30;52.80
4312;DHT22;2169;49.086;9.284;2023-03-01T11:21:47;6.40;52.70
4312;DHT22;2169;49.086;9.284;2023-03-01T11:24:17;6.50;52.50
4312;DHT22;2169;49.086;9.284;2023-03-01T11:26:47;6.50;52.50
4312;DHT22;2169;49.086;9.284;2023-03-01T11:29:25;6.60;52.40
4312;DHT22;2169;49.086;9.284;2023-03-01T11:31:56;6.60;52.20
4312;DHT22;2169;49.086;9.284;2023-03-01T11:34:33;6.60;52.00
4312;DHT22;2169;49.086;9.284;2023-03-01T11:37:08;6.70;51.70
4312;DHT22;2169;49.086;9.284;2023-03-01T11:39:39;6.70;51.60
4312;DHT22;2169;49.086;9.284;2023-03-01T11:42:12;6.70;51.30
4312;DHT22;2169;49.086;9.284;2023-03-01T11:44:41;6.80;51.40
4312;DHT22;2169;49.086;9.284;2023-03-01T11:47:24;6.80;51.40
4312;DHT22;2169;49.086;9.284;2023-03-01T11:50:13;6.90;51.20
4312;DHT22;2169;49.086;9.284;2023-03-01T11:52:52;6.90;51.10
4312;DHT22;2169;49.086;9.284;2023-03-01T11:55:30;6.90;51.00
4312;DHT22;2169;49.086;9.284;2023-03-01T11:58:13;6.90;50.90
4312;DHT22;2169;49.086;9.284;2023-03-01T12:00:57;7.00;50.70
4312;DHT22;2169;49.086;9.284;2023-03-01T12:03:32;7.00;50.70
4312;DHT22;2169;49.086;9.284;2023-03-01T12:06:29;7.10;50.60
4312;DHT22;2169;49.086;9.284;2023-03-01T12:09:17;7.10;50.30
4312;DHT22;2169;49.086;9.284;2023-03-01T12:12:05;7.20;50.30
4312;DHT22;2169;49.086;9.284;2023-03-01T12:14:55;7.20;50.30
4312;DHT22;2169;49.086;9.284;2023-03-01T12:20:32;7.30;50.20
4312;DHT22;2169;49.086;9.284;2023-03-01T12:26:04;7.40;50.30
4312;DHT22;2169;49.086;9.284;2023-03-01T12:34:46;7.40;49.40
4312;DHT22;2169;49.086;9.284;2023-03-01T12:37:29;7.40;49.40
4312;DHT22;2169;49.086;9.284;2023-03-01T12:40:26;7.40;49.60
4312;DHT22;2169;49.086;9.284;2023-03-01T12:43:08;7.50;49.80
4312;DHT22;2169;49.086;9.284;2023-03-01T12:45:51;7.50;50.20
4312;DHT22;2169;49.086;9.284;2023-03-01T12:48:30;7.50;49.50
4312;DHT22;2169;49.086;9.284;2023-03-01T12:51:03;7.60;49.50
4312;DHT22;2169;49.086;9.284;2023-03-01T12:53:34;7.60;49.40
4312;DHT22;2169;49.086;9.284;2023-03-01T12:56:06;7.60;49.30
4312;DHT22;2169;49.086;9.284;2023-03-01T12:58:40;7.60;49.20
4312;DHT22;2169;49.086;9.284;2023-03-01T13:01:17;7.60;49.10
4312;DHT22;2169;49.086;9.284;2023-03-01T13:04:07;7.60;49.00
4312;DHT22;2169;49.086;9.284;2023-03-01T13:06:42;7.60;48.80
4312;DHT22;2169;49.086;9.284;2023-03-01T13:09:18;7.60;48.80
4312;DHT22;2169;49.086;9.284;2023-03-01T13:11:46;7.60;48.60
4312;DHT22;2169;49.086;9.284;2023-03-01T13:14:43;7.60;48.60
4312;DHT22;2169;49.086;9.284;2023-03-01T13:17:32;7.60;48.70
4312;DHT22;2169;49.086;9.284;2023-03-01T13:19:59;7.60;48.70
4312;DHT22;2169;49.086;9.284;2023-03-01T13:22:29;7.60;48.50
4312;DHT22;2169;49.086;9.284;2023-03-01T13:25:03;7.60;48.50
4312;DHT22;2169;49.086;9.284;2023-03-01T13:27:38;7.60;48.60
4312;DHT22;2169;49.086;9.284;2023-03-01T13:30:42;7.70;48.40
4312;DHT22;2169;49.086;9.284;2023-03-01T13:33:39;7.70;48.40
4312;DHT22;2169;49.086;9.284;2023-03-01T13:36:07;7.60;48.30
4312;DHT22;2169;49.086;9.284;2023-03-01T13:38:37;7.70;48.40
4312;DHT22;2169;49.086;9.284;2023-03-01T13:41:05;7.70;48.50
4312;DHT22;2169;49.086;9.284;2023-03-01T13:43:34;7.70;48.30
4312;DHT22;2169;49.086;9.284;2023-03-01T13:46:09;7.70;48.40
4312;DHT22;2169;49.086;9.284;2023-03-01T13:48:38;7.70;48.40
4312;DHT22;2169;49.086;9.284;2023-03-01T13:51:08;7.70;48.50
4312;DHT22;2169;49.086;9.284;2023-03-01T13:53:40;7.80;48.40
4312;DHT22;2169;49.086;9.284;2023-03-01T13:56:11;7.80;48.50
4312;DHT22;2169;49.086;9.284;2023-03-01T13:58:48;7.70;48.10
4312;DHT22;2169;49.086;9.284;2023-03-01T14:01:24;7.80;48.20
4312;DHT22;2169;49.086;9.284;2023-03-01T14:03:51;7.80;48.30
4312;DHT22;2169;49.086;9.284;2023-03-01T14:06:21;7.80;48.30
4312;DHT22;2169;49.086;9.284;2023-03-01T14:08:52;7.80;48.40
4312;DHT22;2169;49.086;9.284;2023-03-01T14:11:46;7.80;48.30
4312;DHT22;2169;49.086;9.284;2023-03-01T14:14:34;7.80;48.10
4312;DHT22;2169;49.086;9.284;2023-03-01T14:17:21;7.80;48.00
4312;DHT22;2169;49.086;9.284;2023-03-01T14:19:56;7.80;48.00
4312;DHT22;2169;49.086;9.284;2023-03-01T14:22:25;7.80;48.00
4312;DHT22;2169;49.086;9.284;2023-03-01T14:24:56;7.80;48.00
4312;DHT22;2169;49.086;9.284;2023-03-01T14:27:26;7.80;48.00
4312;DHT22;2169;49.086;9.284;2023-03-01T14:29:55;7.80;47.90
4312;DHT22;2169;49.086;9.284;2023-03-01T14:32:25;7.80;47.80
4312;DHT22;2169;49.086;9.284;2023-03-01T14:34:53;7.80;47.70
4312;DHT22;2169;49.086;9.284;2023-03-01T14:37:22;7.80;47.60
4312;DHT22;2169;49.086;9.284;2023-03-01T14:39:50;7.80;47.50
4312;DHT22;2169;49.086;9.284;2023-03-01T14:42:18;7.80;47.40
4312;DHT22;2169;49.086;9.284;2023-03-01T14:44:48;7.80;47.50
4312;DHT22;2169;49.086;9.284;2023-03-01T14:47:19;7.80;47.40
4312;DHT22;2169;49.086;9.284;2023-03-01T14:49:54;7.80;47.40
4312;DHT22;2169;49.086;9.284;2023-03-01T14:52:27;7.80;47.30
4312;DHT22;2169;49.086;9.284;2023-03-01T14:54:56;7.90;47.20
4312;DHT22;2169;49.086;9.284;2023-03-01T14:57:24;7.90;47.20
4312;DHT22;2169;49.086;9.284;2023-03-01T14:59:53;7.90;47.20
4312;DHT22;2169;49.086;9.284;2023-03-01T15:02:22;7.90;47.20
4312;DHT22;2169;49.086;9.284;2023-03-01T15:04:52;7.90;47.20
4312;DHT22;2169;49.086;9.284;2023-03-01T15:07:19;8.00;47.40
4312;DHT22;2169;49.086;9.284;2023-03-01T15:09:46;8.00;47.30
4312;DHT22;2169;49.086;9.284;2023-03-01T15:12:33;8.00;47.30
4312;DHT22;2169;49.086;9.284;2023-03-01T15:15:00;8.00;47.30
4312;DHT22;2169;49.086;9.284;2023-03-01T15:17:31;8.10;47.50
4312;DHT22;2169;49.086;9.284;2023-03-01T15:20:00;8.10;47.30
4312;DHT22;2169;49.086;9.284;2023-03-01T15:22:28;8.10;47.30
4312;DHT22;2169;49.086;9.284;2023-03-01T15:24:54;8.10;47.40
4312;DHT22;2169;49.086;9.284;2023-03-01T15:27:23;8.10;47.40
4312;DHT22;2169;49.086;9.284;2023-03-01T15:29:53;8.10;47.20
4312;DHT22;2169;49.086;9.284;2023-03-01T15:32:26;8.10;46.80
4312;DHT22;2169;49.086;9.284;2023-03-01T15:34:53;8.10;46.80
4312;DHT22;2169;49.086;9.284;2023-03-01T15:37:40;8.10;46.80
4312;DHT22;2169;49.086;9.284;2023-03-01T15:40:19;8.10;46.90
4312;DHT22;2169;49.086;9.284;2023-03-01T15:42:46;8.10;47.50
4312;DHT22;2169;49.086;9.284;2023-03-01T15:45:23;8.10;46.90
4312;DHT22;2169;49.086;9.284;2023-03-01T15:47:52;8.10;46.90
4312;DHT22;2169;49.086;9.284;2023-03-01T15:50:22;8.10;47.00
4312;DHT22;2169;49.086;9.284;2023-03-01T15:52:51;8.10;47.10
4312;DHT22;2169;49.086;9.284;2023-03-01T15:55:19;8.10;47.00
4312;DHT22;2169;49.086;9.284;2023-03-01T15:57:46;8.10;47.00
4312;DHT22;2169;49.086;9.284;2023-03-01T16:00:14;8.10;47.10
4312;DHT22;2169;49.086;9.284;2023-03-01T16:02:43;8.10;47.00
4312;DHT22;2169;49.086;9.284;2023-03-01T16:05:17;8.10;47.00
4312;DHT22;2169;49.086;9.284;2023-03-01T16:07:45;8.00;46.90
4312;DHT22;2169;49.086;9.284;2023-03-01T16:10:13;8.00;46.90
4312;DHT22;2169;49.086;9.284;2023-03-01T16:12:40;8.00;46.90
4312;DHT22;2169;49.086;9.284;2023-03-01T16:15:14;8.00;47.00
4312;DHT22;2169;49.086;9.284;2023-03-01T16:17:42;8.00;46.90
4312;DHT22;2169;49.086;9.284;2023-03-01T16:20:09;8.00;47.00
4312;DHT22;2169;49.086;9.284;2023-03-01T16:22:36;7.90;47.60
4312;DHT22;2169;49.086;9.284;2023-03-01T16:25:04;7.90;47.00
4312;DHT22;2169;49.086;9.284;2023-03-01T16:27:32;7.90;46.90
4312;DHT22;2169;49.086;9.284;2023-03-01T16:29:59;7.90;47.00
4312;DHT22;2169;49.086;9.284;2023-03-01T16:32:25;7.90;46.90
4312;DHT22;2169;49.086;9.284;2023-03-01T16:34:52;7.90;47.00
4312;DHT22;2169;49.086;9.284;2023-03-01T16:37:19;7.90;47.00
4312;DHT22;2169;49.086;9.284;2023-03-01T16:39:47;7.80;46.90
4312;DHT22;2169;49.086;9.284;2023-03-01T16:42:15;7.80;47.00
4312;DHT22;2169;49.086;9.284;2023-03-01T16:44:43;7.80;47.00
4312;DHT22;2169;49.086;9.284;2023-03-01T16:47:10;7.80;47.10